MSR742 LCLK-HECA
Flight info
| Callsign | MSR742 |
|---|---|
| Flight time | 0h 59m |
| Altitude | 36000 |
| Route | EMEDA DCT STEPA/N0463F370 N71 LAKTO N307 MELDO A16 CVO |
| Aircraft | B738/M-SDE2E3FGHIRWXY/LB1 |
Departure
| Time | 2026-05-04 15:59 |
|---|---|
| Airport | Larnaca International Airport (LCLK) |
Arrival
| Time | 2026-05-04 16:58 |
|---|---|
| Airport | Cairo International Airport (HECA) |
| Time | Latitude | Longitude | Altitude | Speed | Heading |
|---|---|---|---|---|---|
| 2026-05-04 15:40 | 34.86863 | 33.60966 | 19 ft | 0 kts | 45° |
| 2026-05-04 15:47 | 34.86859 | 33.60960 | 19 ft | 4 kts | 45° |
| 2026-05-04 15:47 | 34.86839 | 33.60937 | 21 ft | 4 kts | 40° |
| 2026-05-04 15:47 | 34.86817 | 33.60919 | 23 ft | 3 kts | 16° |
| 2026-05-04 15:48 | 34.86799 | 33.60912 | 19 ft | 4 kts | 46° |
| 2026-05-04 15:48 | 34.86794 | 33.60894 | 21 ft | 4 kts | 134° |
| 2026-05-04 15:48 | 34.86812 | 33.60873 | 22 ft | 0 kts | 135° |
| 2026-05-04 15:52 | 34.86807 | 33.60879 | 21 ft | 5 kts | 135° |
| 2026-05-04 15:52 | 34.86752 | 33.60944 | 19 ft | 13 kts | 135° |
| 2026-05-04 15:52 | 34.86687 | 33.61022 | 21 ft | 13 kts | 135° |
| 2026-05-04 15:53 | 34.86635 | 33.61119 | 20 ft | 15 kts | 80° |
| 2026-05-04 15:53 | 34.86711 | 33.61222 | 19 ft | 20 kts | 45° |
| 2026-05-04 15:53 | 34.86830 | 33.61366 | 17 ft | 27 kts | 46° |
| 2026-05-04 15:53 | 34.86961 | 33.61526 | 17 ft | 26 kts | 44° |
| 2026-05-04 15:54 | 34.87084 | 33.61675 | 20 ft | 24 kts | 46° |
| 2026-05-04 15:54 | 34.87198 | 33.61816 | 20 ft | 23 kts | 45° |
| 2026-05-04 15:54 | 34.87308 | 33.61950 | 20 ft | 22 kts | 44° |
| 2026-05-04 15:54 | 34.87415 | 33.62083 | 17 ft | 22 kts | 45° |
| 2026-05-04 15:55 | 34.87519 | 33.62210 | 17 ft | 21 kts | 45° |
| 2026-05-04 15:55 | 34.87620 | 33.62334 | 16 ft | 20 kts | 45° |
| 2026-05-04 15:55 | 34.87719 | 33.62453 | 17 ft | 20 kts | 45° |
| 2026-05-04 15:55 | 34.87814 | 33.62569 | 18 ft | 19 kts | 45° |
| 2026-05-04 15:56 | 34.87906 | 33.62682 | 20 ft | 18 kts | 45° |
| 2026-05-04 15:56 | 34.87996 | 33.62789 | 19 ft | 18 kts | 44° |
| 2026-05-04 15:56 | 34.88081 | 33.62894 | 20 ft | 17 kts | 48° |
| 2026-05-04 15:56 | 34.88163 | 33.62998 | 17 ft | 17 kts | 45° |
| 2026-05-04 15:57 | 34.88243 | 33.63093 | 18 ft | 16 kts | 44° |
| 2026-05-04 15:57 | 34.88321 | 33.63186 | 16 ft | 15 kts | 45° |
| 2026-05-04 15:57 | 34.88395 | 33.63275 | 15 ft | 15 kts | 45° |
| 2026-05-04 15:57 | 34.88442 | 33.63374 | 18 ft | 14 kts | 101° |
| 2026-05-04 15:58 | 34.88384 | 33.63466 | 18 ft | 13 kts | 130° |
| 2026-05-04 15:58 | 34.88315 | 33.63531 | 16 ft | 9 kts | 167° |
| 2026-05-04 15:58 | 34.88279 | 33.63497 | 15 ft | 17 kts | 228° |
| 2026-05-04 15:58 | 34.88018 | 33.63176 | 17 ft | 89 kts | 224° |
| 2026-05-04 15:59 | 34.87423 | 33.62450 | 16 ft | 151 kts | 224° |
| 2026-05-04 15:59 | 34.86618 | 33.61465 | 439 ft | 170 kts | 230° |
| 2026-05-04 15:59 | 34.85769 | 33.60407 | 1123 ft | 179 kts | 229° |
| 2026-05-04 15:59 | 34.84858 | 33.59296 | 1844 ft | 189 kts | 228° |
| 2026-05-04 16:00 | 34.83866 | 33.58086 | 2085 ft | 213 kts | 229° |
| 2026-05-04 16:00 | 34.82776 | 33.56759 | 2351 ft | 227 kts | 227° |
| 2026-05-04 16:00 | 34.81408 | 33.55720 | 2787 ft | 240 kts | 199° |
| 2026-05-04 16:00 | 34.79727 | 33.55687 | 3315 ft | 249 kts | 167° |
| 2026-05-04 16:01 | 34.78192 | 33.56642 | 3947 ft | 251 kts | 145° |
| 2026-05-04 16:01 | 34.76847 | 33.58027 | 4436 ft | 258 kts | 141° |
| 2026-05-04 16:01 | 34.75495 | 33.59539 | 4714 ft | 275 kts | 141° |
| 2026-05-04 16:01 | 34.74046 | 33.61167 | 5072 ft | 290 kts | 140° |
| 2026-05-04 16:02 | 34.72559 | 33.62827 | 5798 ft | 294 kts | 141° |
| 2026-05-04 16:02 | 34.71060 | 33.64488 | 6701 ft | 289 kts | 141° |
| 2026-05-04 16:02 | 34.68041 | 33.67794 | 8148 ft | 295 kts | 141° |
| 2026-05-04 16:03 | 34.66500 | 33.69471 | 8806 ft | 300 kts | 142° |
| 2026-05-04 16:03 | 34.64921 | 33.71184 | 9392 ft | 309 kts | 142° |
| 2026-05-04 16:03 | 34.63378 | 33.73024 | 10076 ft | 314 kts | 129° |
| 2026-05-04 16:03 | 34.62478 | 33.75497 | 10481 ft | 334 kts | 100° |
| 2026-05-04 16:04 | 34.62450 | 33.78393 | 10700 ft | 354 kts | 85° |
| 2026-05-04 16:04 | 34.61341 | 33.84379 | 11035 ft | 387 kts | 129° |
| 2026-05-04 16:04 | 34.59344 | 33.86538 | 11435 ft | 385 kts | 155° |
| 2026-05-04 16:05 | 34.56848 | 33.87533 | 12107 ft | 375 kts | 178° |
| 2026-05-04 16:05 | 34.54292 | 33.87287 | 12719 ft | 367 kts | 202° |
| 2026-05-04 16:05 | 34.50325 | 33.83735 | 13936 ft | 358 kts | 235° |
| 2026-05-04 16:06 | 34.48778 | 33.81356 | 14518 ft | 362 kts | 233° |
| 2026-05-04 16:06 | 34.43484 | 33.76098 | 16131 ft | 378 kts | 219° |
| 2026-05-04 16:07 | 34.40576 | 33.73630 | 16866 ft | 385 kts | 219° |
| 2026-05-04 16:07 | 34.33893 | 33.67942 | 18516 ft | 397 kts | 219° |
| 2026-05-04 16:08 | 34.31633 | 33.66006 | 19079 ft | 398 kts | 219° |
| 2026-05-04 16:08 | 34.24778 | 33.60126 | 20672 ft | 404 kts | 219° |
| 2026-05-04 16:09 | 34.20180 | 33.56178 | 21561 ft | 412 kts | 219° |
| 2026-05-04 16:09 | 34.15501 | 33.52169 | 22658 ft | 413 kts | 219° |
| 2026-05-04 16:10 | 34.10779 | 33.48128 | 23537 ft | 419 kts | 218° |
| 2026-05-04 16:11 | 34.03643 | 33.42034 | 24878 ft | 418 kts | 219° |
| 2026-05-04 16:11 | 34.01270 | 33.40011 | 25312 ft | 418 kts | 220° |
| 2026-05-04 16:12 | 33.94184 | 33.33978 | 26882 ft | 407 kts | 221° |
| 2026-05-04 16:12 | 33.87176 | 33.28015 | 27674 ft | 416 kts | 222° |
| 2026-05-04 16:13 | 33.82454 | 33.24008 | 28484 ft | 414 kts | 222° |
| 2026-05-04 16:13 | 33.77796 | 33.20068 | 29565 ft | 404 kts | 224° |
| 2026-05-04 16:14 | 33.73247 | 33.16225 | 30431 ft | 399 kts | 224° |
| 2026-05-04 16:14 | 33.68662 | 33.12336 | 30720 ft | 407 kts | 223° |
| 2026-05-04 16:15 | 33.61754 | 33.06508 | 31733 ft | 403 kts | 223° |
| 2026-05-04 16:16 | 33.57150 | 33.02629 | 32232 ft | 405 kts | 223° |
| 2026-05-04 16:16 | 33.50249 | 32.96826 | 33076 ft | 404 kts | 223° |
| 2026-05-04 16:17 | 33.45647 | 32.92962 | 33624 ft | 404 kts | 222° |
| 2026-05-04 16:18 | 33.38836 | 32.87258 | 34450 ft | 399 kts | 222° |
| 2026-05-04 16:18 | 33.36550 | 32.85339 | 34495 ft | 404 kts | 222° |
| 2026-05-04 16:19 | 33.29646 | 32.79565 | 35154 ft | 403 kts | 222° |
| 2026-05-04 16:19 | 33.25041 | 32.75721 | 35450 ft | 404 kts | 222° |
| 2026-05-04 16:20 | 33.18157 | 32.69985 | 35953 ft | 405 kts | 222° |
| 2026-05-04 16:20 | 33.13534 | 32.66137 | 35973 ft | 404 kts | 222° |
| 2026-05-04 16:22 | 33.02115 | 32.56662 | 35978 ft | 397 kts | 222° |
| 2026-05-04 16:23 | 32.89270 | 32.46029 | 35955 ft | 399 kts | 222° |
| 2026-05-04 16:24 | 32.80642 | 32.37930 | 36004 ft | 389 kts | 235° |
| 2026-05-04 16:25 | 32.77023 | 32.31882 | 36008 ft | 387 kts | 240° |
| 2026-05-04 16:26 | 32.66738 | 32.14184 | 36020 ft | 392 kts | 240° |
| 2026-05-04 16:28 | 32.58990 | 32.00924 | 36026 ft | 392 kts | 240° |
| 2026-05-04 16:29 | 32.48124 | 31.82356 | 36030 ft | 391 kts | 240° |
| 2026-05-04 16:31 | 32.40348 | 31.69126 | 36023 ft | 391 kts | 240° |
| 2026-05-04 16:32 | 32.31010 | 31.53296 | 36045 ft | 391 kts | 240° |
| 2026-05-04 16:33 | 32.24759 | 31.42737 | 36034 ft | 392 kts | 240° |
| 2026-05-04 16:34 | 32.20084 | 31.34854 | 36056 ft | 392 kts | 240° |
| 2026-05-04 16:35 | 32.10668 | 31.19006 | 36055 ft | 394 kts | 240° |
| 2026-05-04 16:36 | 32.05807 | 31.11183 | 36042 ft | 402 kts | 229° |
| 2026-05-04 16:37 | 32.00784 | 31.07941 | 36064 ft | 428 kts | 204° |
| 2026-05-04 16:37 | 31.97795 | 31.07358 | 36048 ft | 447 kts | 189° |
| 2026-05-04 16:38 | 31.85115 | 31.08737 | 35350 ft | 465 kts | 183° |
| 2026-05-04 16:39 | 31.75474 | 31.09857 | 33362 ft | 465 kts | 184° |
| 2026-05-04 16:39 | 31.69058 | 31.10555 | 32275 ft | 459 kts | 184° |
| 2026-05-04 16:40 | 31.62762 | 31.11237 | 31280 ft | 450 kts | 184° |
| 2026-05-04 16:40 | 31.56585 | 31.11905 | 30395 ft | 442 kts | 184° |
| 2026-05-04 16:41 | 31.50490 | 31.12654 | 29189 ft | 443 kts | 181° |
| 2026-05-04 16:41 | 31.41480 | 31.14377 | 27690 ft | 433 kts | 180° |
| 2026-05-04 16:42 | 31.32692 | 31.16030 | 26321 ft | 420 kts | 180° |
| 2026-05-04 16:43 | 31.26966 | 31.17077 | 25452 ft | 413 kts | 180° |
| 2026-05-04 16:43 | 31.21321 | 31.18118 | 24590 ft | 407 kts | 180° |
| 2026-05-04 16:43 | 31.18535 | 31.18641 | 24187 ft | 404 kts | 180° |
| 2026-05-04 16:44 | 31.07558 | 31.20698 | 22337 ft | 393 kts | 180° |
| 2026-05-04 16:45 | 31.02199 | 31.21700 | 21481 ft | 387 kts | 180° |
| 2026-05-04 16:46 | 30.94409 | 31.24394 | 19651 ft | 397 kts | 165° |
| 2026-05-04 16:46 | 30.89363 | 31.26875 | 18475 ft | 390 kts | 166° |
| 2026-05-04 16:47 | 30.84405 | 31.29281 | 17168 ft | 382 kts | 165° |
| 2026-05-04 16:47 | 30.79523 | 31.31622 | 15900 ft | 376 kts | 165° |
| 2026-05-04 16:48 | 30.72435 | 31.35012 | 14759 ft | 349 kts | 165° |
| 2026-05-04 16:48 | 30.70242 | 31.36064 | 14618 ft | 334 kts | 165° |
| 2026-05-04 16:49 | 30.66044 | 31.38065 | 14059 ft | 319 kts | 165° |
| 2026-05-04 16:49 | 30.61955 | 31.40002 | 13185 ft | 315 kts | 165° |
| 2026-05-04 16:50 | 30.57953 | 31.41900 | 12320 ft | 310 kts | 164° |
| 2026-05-04 16:50 | 30.53982 | 31.43784 | 11468 ft | 307 kts | 164° |
| 2026-05-04 16:51 | 30.50002 | 31.45668 | 10336 ft | 314 kts | 163° |
| 2026-05-04 16:51 | 30.47959 | 31.46634 | 9669 ft | 319 kts | 163° |
| 2026-05-04 16:51 | 30.43976 | 31.48530 | 9262 ft | 295 kts | 163° |
| 2026-05-04 16:52 | 30.40249 | 31.50297 | 8424 ft | 291 kts | 162° |
| 2026-05-04 16:52 | 30.38352 | 31.51190 | 7802 ft | 297 kts | 162° |
| 2026-05-04 16:53 | 30.34664 | 31.52939 | 7476 ft | 272 kts | 162° |
| 2026-05-04 16:53 | 30.29773 | 31.55252 | 7093 ft | 238 kts | 161° |
| 2026-05-04 16:54 | 30.28213 | 31.55985 | 6596 ft | 245 kts | 161° |
| 2026-05-04 16:55 | 30.21199 | 31.58133 | 3732 ft | 279 kts | 206° |
| 2026-05-04 16:55 | 30.19040 | 31.54946 | 2829 ft | 245 kts | 252° |
| 2026-05-04 16:56 | 30.17172 | 31.52038 | 2203 ft | 205 kts | 235° |
| 2026-05-04 16:56 | 30.14840 | 31.48839 | 1471 ft | 156 kts | 236° |
| 2026-05-04 16:57 | 30.14160 | 31.47863 | 1101 ft | 153 kts | 237° |
| 2026-05-04 16:57 | 30.12784 | 31.45989 | 673 ft | 158 kts | 235° |
| 2026-05-04 16:58 | 30.10914 | 31.43500 | 372 ft | 83 kts | 229° |
| 2026-05-04 16:58 | 30.10644 | 31.43139 | 371 ft | 47 kts | 233° |
| 2026-05-04 16:59 | 30.10479 | 31.42705 | 373 ft | 25 kts | 254° |
| 2026-05-04 17:00 | 30.10114 | 31.42135 | 373 ft | 21 kts | 229° |
| 2026-05-04 17:00 | 30.09896 | 31.41754 | 373 ft | 19 kts | 305° |
| 2026-05-04 17:01 | 30.09893 | 31.41476 | 373 ft | 17 kts | 258° |
| 2026-05-04 17:01 | 30.09848 | 31.41212 | 373 ft | 16 kts | 259° |
| 2026-05-04 17:02 | 30.09807 | 31.40969 | 373 ft | 15 kts | 258° |
| 2026-05-04 17:02 | 30.09828 | 31.40719 | 373 ft | 17 kts | 318° |
| 2026-05-04 17:03 | 30.09916 | 31.40631 | 373 ft | 17 kts | 319° |
| 2026-05-04 17:03 | 30.10002 | 31.40545 | 373 ft | 16 kts | 320° |
| 2026-05-04 17:03 | 30.10163 | 31.40386 | 373 ft | 15 kts | 319° |
| 2026-05-04 17:04 | 30.10351 | 31.40200 | 373 ft | 20 kts | 320° |
| 2026-05-04 17:04 | 30.10545 | 31.40198 | 374 ft | 17 kts | 49° |
| 2026-05-04 17:05 | 30.10713 | 31.40297 | 373 ft | 15 kts | 332° |
| 2026-05-04 17:05 | 30.10851 | 31.40442 | 373 ft | 13 kts | 49° |
| 2026-05-04 17:06 | 30.10955 | 31.40340 | 373 ft | 13 kts | 287° |
| 2026-05-04 17:06 | 30.10943 | 31.40248 | 373 ft | 12 kts | 233° |
| 2026-05-04 17:07 | 30.10838 | 31.40137 | 373 ft | 8 kts | 162° |
| 2026-05-04 17:07 | 30.10810 | 31.40161 | 373 ft | 8 kts | 140° |
| 2026-05-04 17:07 | 30.10778 | 31.40192 | 373 ft | 1 kts | 140° |